GAP2868 RPVM-RPLL
Flight info
| Callsign | GAP2868 |
|---|---|
| Flight time | 0h 54m |
| Altitude | 34000 |
| Route | MULOP W11 CONDE |
| Aircraft | A321/M-SDE3FGHIRWY/LB1 |
Departure
| Time | 2026-04-30 06:03 |
|---|---|
| Airport | Mactan Cebu International Airport (RPVM) |
Arrival
| Time | 2026-04-30 06:58 |
|---|---|
| Airport | Ninoy Aquino International Airport (RPLL) |
| Time | Latitude | Longitude | Altitude | Speed | Heading |
|---|---|---|---|---|---|
| 2026-04-30 05:44 | 10.31503 | 123.97921 | 35 ft | 0 kts | 315° |
| 2026-04-30 05:50 | 10.31501 | 123.97923 | 34 ft | 2 kts | 315° |
| 2026-04-30 05:51 | 10.31488 | 123.97936 | 34 ft | 3 kts | 315° |
| 2026-04-30 05:51 | 10.31475 | 123.97949 | 32 ft | 3 kts | 315° |
| 2026-04-30 05:51 | 10.31462 | 123.97963 | 34 ft | 3 kts | 296° |
| 2026-04-30 05:51 | 10.31457 | 123.97981 | 33 ft | 3 kts | 262° |
| 2026-04-30 05:52 | 10.31463 | 123.97998 | 34 ft | 3 kts | 225° |
| 2026-04-30 05:52 | 10.31472 | 123.98008 | 32 ft | 0 kts | 225° |
| 2026-04-30 05:55 | 10.31465 | 123.98000 | 36 ft | 3 kts | 225° |
| 2026-04-30 05:56 | 10.31444 | 123.97978 | 36 ft | 6 kts | 225° |
| 2026-04-30 05:56 | 10.31410 | 123.97944 | 37 ft | 8 kts | 224° |
| 2026-04-30 05:56 | 10.31365 | 123.97902 | 37 ft | 8 kts | 213° |
| 2026-04-30 05:56 | 10.31310 | 123.97911 | 37 ft | 7 kts | 146° |
| 2026-04-30 05:57 | 10.31267 | 123.97952 | 37 ft | 10 kts | 135° |
| 2026-04-30 05:57 | 10.31217 | 123.97988 | 37 ft | 8 kts | 179° |
| 2026-04-30 05:57 | 10.31173 | 123.97955 | 35 ft | 9 kts | 224° |
| 2026-04-30 05:57 | 10.31119 | 123.97901 | 37 ft | 13 kts | 225° |
| 2026-04-30 05:58 | 10.31042 | 123.97824 | 37 ft | 17 kts | 224° |
| 2026-04-30 05:58 | 10.30952 | 123.97734 | 37 ft | 19 kts | 225° |
| 2026-04-30 05:58 | 10.30859 | 123.97640 | 37 ft | 18 kts | 224° |
| 2026-04-30 05:58 | 10.30773 | 123.97554 | 36 ft | 18 kts | 225° |
| 2026-04-30 05:59 | 10.30686 | 123.97466 | 37 ft | 18 kts | 225° |
| 2026-04-30 05:59 | 10.30596 | 123.97377 | 37 ft | 17 kts | 224° |
| 2026-04-30 05:59 | 10.30510 | 123.97291 | 36 ft | 17 kts | 224° |
| 2026-04-30 05:59 | 10.30427 | 123.97208 | 37 ft | 16 kts | 224° |
| 2026-04-30 06:00 | 10.30344 | 123.97125 | 35 ft | 17 kts | 225° |
| 2026-04-30 06:00 | 10.30256 | 123.97036 | 37 ft | 18 kts | 225° |
| 2026-04-30 06:00 | 10.30171 | 123.96951 | 37 ft | 17 kts | 224° |
| 2026-04-30 06:00 | 10.30082 | 123.96862 | 37 ft | 18 kts | 225° |
| 2026-04-30 06:01 | 10.29988 | 123.96768 | 37 ft | 19 kts | 224° |
| 2026-04-30 06:01 | 10.29925 | 123.96708 | 37 ft | 9 kts | 215° |
| 2026-04-30 06:01 | 10.29872 | 123.96716 | 37 ft | 9 kts | 136° |
| 2026-04-30 06:01 | 10.29826 | 123.96763 | 37 ft | 10 kts | 135° |
| 2026-04-30 06:02 | 10.29772 | 123.96818 | 36 ft | 12 kts | 135° |
| 2026-04-30 06:02 | 10.29723 | 123.96878 | 36 ft | 7 kts | 111° |
| 2026-04-30 06:02 | 10.29740 | 123.96924 | 36 ft | 6 kts | 47° |
| 2026-04-30 06:02 | 10.29767 | 123.96951 | 36 ft | 11 kts | 45° |
| 2026-04-30 06:03 | 10.30006 | 123.97190 | 36 ft | 85 kts | 44° |
| 2026-04-30 06:03 | 10.30581 | 123.97767 | 36 ft | 145 kts | 45° |
| 2026-04-30 06:03 | 10.31396 | 123.98587 | 277 ft | 171 kts | 43° |
| 2026-04-30 06:03 | 10.32236 | 123.99422 | 1053 ft | 168 kts | 44° |
| 2026-04-30 06:04 | 10.33064 | 124.00257 | 1778 ft | 166 kts | 44° |
| 2026-04-30 06:04 | 10.33904 | 124.01108 | 2118 ft | 179 kts | 45° |
| 2026-04-30 06:04 | 10.34835 | 124.02049 | 2314 ft | 200 kts | 46° |
| 2026-04-30 06:05 | 10.37150 | 124.04171 | 2745 ft | 249 kts | 26° |
| 2026-04-30 06:05 | 10.38903 | 124.04396 | 3249 ft | 265 kts | 351° |
| 2026-04-30 06:05 | 10.40651 | 124.03750 | 3939 ft | 272 kts | 336° |
| 2026-04-30 06:05 | 10.42323 | 124.02811 | 4664 ft | 277 kts | 332° |
| 2026-04-30 06:06 | 10.43992 | 124.01824 | 5352 ft | 280 kts | 333° |
| 2026-04-30 06:06 | 10.45719 | 124.00866 | 6108 ft | 283 kts | 335° |
| 2026-04-30 06:06 | 10.47495 | 123.99968 | 6825 ft | 286 kts | 338° |
| 2026-04-30 06:06 | 10.49317 | 123.99122 | 7480 ft | 289 kts | 339° |
| 2026-04-30 06:07 | 10.51178 | 123.98307 | 8127 ft | 293 kts | 340° |
| 2026-04-30 06:07 | 10.53066 | 123.97505 | 8788 ft | 297 kts | 341° |
| 2026-04-30 06:07 | 10.54994 | 123.96697 | 9425 ft | 301 kts | 341° |
| 2026-04-30 06:07 | 10.56282 | 123.96159 | 9833 ft | 304 kts | 341° |
| 2026-04-30 06:08 | 10.58930 | 123.95054 | 10247 ft | 324 kts | 341° |
| 2026-04-30 06:08 | 10.60378 | 123.94451 | 10334 ft | 339 kts | 340° |
| 2026-04-30 06:08 | 10.63343 | 123.93168 | 10747 ft | 357 kts | 335° |
| 2026-04-30 06:08 | 10.65441 | 123.91771 | 11293 ft | 364 kts | 322° |
| 2026-04-30 06:09 | 10.66693 | 123.90574 | 11701 ft | 367 kts | 314° |
| 2026-04-30 06:09 | 10.68365 | 123.88599 | 12275 ft | 370 kts | 312° |
| 2026-04-30 06:09 | 10.70022 | 123.86634 | 12828 ft | 373 kts | 313° |
| 2026-04-30 06:09 | 10.72301 | 123.83948 | 13539 ft | 378 kts | 313° |
| 2026-04-30 06:10 | 10.73448 | 123.82597 | 13887 ft | 380 kts | 312° |
| 2026-04-30 06:10 | 10.75171 | 123.80566 | 14383 ft | 382 kts | 312° |
| 2026-04-30 06:10 | 10.76912 | 123.78511 | 14871 ft | 385 kts | 312° |
| 2026-04-30 06:10 | 10.78668 | 123.76439 | 15366 ft | 388 kts | 312° |
| 2026-04-30 06:11 | 10.80439 | 123.74352 | 15850 ft | 390 kts | 312° |
| 2026-04-30 06:11 | 10.82223 | 123.72250 | 16331 ft | 393 kts | 312° |
| 2026-04-30 06:11 | 10.84017 | 123.70134 | 16806 ft | 396 kts | 312° |
| 2026-04-30 06:11 | 10.85829 | 123.67993 | 17282 ft | 399 kts | 312° |
| 2026-04-30 06:12 | 10.87649 | 123.65838 | 17760 ft | 402 kts | 312° |
| 2026-04-30 06:12 | 10.89481 | 123.63670 | 18217 ft | 405 kts | 312° |
| 2026-04-30 06:12 | 10.91322 | 123.61496 | 18636 ft | 408 kts | 312° |
| 2026-04-30 06:12 | 10.93156 | 123.59332 | 19053 ft | 410 kts | 312° |
| 2026-04-30 06:13 | 10.95025 | 123.57125 | 19468 ft | 412 kts | 312° |
| 2026-04-30 06:13 | 10.96903 | 123.54906 | 19903 ft | 415 kts | 312° |
| 2026-04-30 06:13 | 10.98786 | 123.52678 | 20330 ft | 417 kts | 312° |
| 2026-04-30 06:13 | 11.00839 | 123.50575 | 20740 ft | 418 kts | 322° |
| 2026-04-30 06:14 | 11.03180 | 123.48832 | 21144 ft | 419 kts | 327° |
| 2026-04-30 06:14 | 11.05600 | 123.47147 | 21570 ft | 422 kts | 327° |
| 2026-04-30 06:14 | 11.08033 | 123.45451 | 21995 ft | 424 kts | 327° |
| 2026-04-30 06:14 | 11.10472 | 123.43749 | 22391 ft | 427 kts | 327° |
| 2026-04-30 06:15 | 11.12932 | 123.42030 | 22784 ft | 429 kts | 327° |
| 2026-04-30 06:15 | 11.15399 | 123.40308 | 23167 ft | 431 kts | 327° |
| 2026-04-30 06:15 | 11.17882 | 123.38575 | 23525 ft | 434 kts | 327° |
| 2026-04-30 06:15 | 11.20375 | 123.36831 | 23844 ft | 436 kts | 327° |
| 2026-04-30 06:16 | 11.22873 | 123.35083 | 24168 ft | 437 kts | 327° |
| 2026-04-30 06:16 | 11.25383 | 123.33325 | 24495 ft | 438 kts | 327° |
| 2026-04-30 06:16 | 11.27872 | 123.31584 | 24816 ft | 439 kts | 327° |
| 2026-04-30 06:16 | 11.30429 | 123.29795 | 25137 ft | 441 kts | 327° |
| 2026-04-30 06:17 | 11.32960 | 123.28023 | 25459 ft | 442 kts | 327° |
| 2026-04-30 06:17 | 11.35492 | 123.26251 | 25762 ft | 444 kts | 327° |
| 2026-04-30 06:17 | 11.38016 | 123.24486 | 26072 ft | 445 kts | 326° |
| 2026-04-30 06:17 | 11.40578 | 123.22695 | 26386 ft | 447 kts | 326° |
| 2026-04-30 06:18 | 11.43141 | 123.20902 | 26683 ft | 449 kts | 326° |
| 2026-04-30 06:18 | 11.45721 | 123.19093 | 26985 ft | 450 kts | 326° |
| 2026-04-30 06:18 | 11.48296 | 123.17286 | 27278 ft | 452 kts | 326° |
| 2026-04-30 06:18 | 11.50897 | 123.15463 | 27576 ft | 454 kts | 326° |
| 2026-04-30 06:19 | 11.53509 | 123.13634 | 27869 ft | 456 kts | 326° |
| 2026-04-30 06:19 | 11.56119 | 123.11806 | 28159 ft | 457 kts | 326° |
| 2026-04-30 06:19 | 11.58748 | 123.09963 | 28456 ft | 459 kts | 326° |
| 2026-04-30 06:19 | 11.61396 | 123.08106 | 28755 ft | 460 kts | 326° |
| 2026-04-30 06:20 | 11.64045 | 123.06247 | 29043 ft | 462 kts | 326° |
| 2026-04-30 06:20 | 11.66681 | 123.04398 | 29321 ft | 463 kts | 326° |
| 2026-04-30 06:20 | 11.69357 | 123.02522 | 29592 ft | 465 kts | 326° |
| 2026-04-30 06:20 | 11.72018 | 123.00653 | 29867 ft | 466 kts | 326° |
| 2026-04-30 06:21 | 11.74688 | 122.98775 | 30108 ft | 468 kts | 325° |
| 2026-04-30 06:21 | 11.77390 | 122.96875 | 30327 ft | 470 kts | 325° |
| 2026-04-30 06:21 | 11.80056 | 122.94999 | 30528 ft | 472 kts | 325° |
| 2026-04-30 06:21 | 11.82795 | 122.93073 | 30743 ft | 475 kts | 325° |
| 2026-04-30 06:22 | 11.85520 | 122.91156 | 30957 ft | 477 kts | 325° |
| 2026-04-30 06:22 | 11.88249 | 122.89240 | 31245 ft | 477 kts | 325° |
| 2026-04-30 06:22 | 11.90846 | 122.87417 | 31541 ft | 476 kts | 325° |
| 2026-04-30 06:22 | 11.93583 | 122.85492 | 31846 ft | 476 kts | 325° |
| 2026-04-30 06:23 | 11.96315 | 122.83567 | 32144 ft | 476 kts | 325° |
| 2026-04-30 06:23 | 11.99043 | 122.81645 | 32449 ft | 476 kts | 325° |
| 2026-04-30 06:23 | 12.01780 | 122.79716 | 32745 ft | 476 kts | 325° |
| 2026-04-30 06:23 | 12.04504 | 122.77800 | 33047 ft | 475 kts | 325° |
| 2026-04-30 06:24 | 12.07192 | 122.75909 | 33349 ft | 475 kts | 325° |
| 2026-04-30 06:24 | 12.09882 | 122.74013 | 33642 ft | 475 kts | 325° |
| 2026-04-30 06:24 | 12.12608 | 122.72093 | 33860 ft | 476 kts | 325° |
| 2026-04-30 06:25 | 12.17984 | 122.68298 | 33902 ft | 465 kts | 324° |
| 2026-04-30 06:25 | 12.23304 | 122.64544 | 33896 ft | 464 kts | 324° |
| 2026-04-30 06:26 | 12.28613 | 122.60800 | 33898 ft | 463 kts | 324° |
| 2026-04-30 06:26 | 12.33925 | 122.57048 | 33902 ft | 464 kts | 324° |
| 2026-04-30 06:27 | 12.39232 | 122.53292 | 33897 ft | 464 kts | 324° |
| 2026-04-30 06:27 | 12.44543 | 122.49538 | 33899 ft | 464 kts | 324° |
| 2026-04-30 06:28 | 12.49791 | 122.45834 | 33906 ft | 464 kts | 324° |
| 2026-04-30 06:28 | 12.55105 | 122.42074 | 33911 ft | 465 kts | 324° |
| 2026-04-30 06:29 | 12.60387 | 122.38328 | 33910 ft | 465 kts | 324° |
| 2026-04-30 06:29 | 12.65713 | 122.34550 | 33908 ft | 465 kts | 324° |
| 2026-04-30 06:30 | 12.71037 | 122.30781 | 33902 ft | 466 kts | 324° |
| 2026-04-30 06:30 | 12.76379 | 122.27005 | 33907 ft | 466 kts | 324° |
| 2026-04-30 06:31 | 12.81714 | 122.23223 | 33911 ft | 466 kts | 324° |
| 2026-04-30 06:31 | 12.87061 | 122.19422 | 33910 ft | 467 kts | 324° |
| 2026-04-30 06:32 | 12.92369 | 122.15645 | 33912 ft | 467 kts | 324° |
| 2026-04-30 06:32 | 12.97710 | 122.11849 | 33916 ft | 467 kts | 324° |
| 2026-04-30 06:33 | 13.03056 | 122.08054 | 33916 ft | 468 kts | 324° |
| 2026-04-30 06:33 | 13.08426 | 122.04237 | 33905 ft | 472 kts | 324° |
| 2026-04-30 06:34 | 13.13881 | 122.00345 | 33901 ft | 479 kts | 324° |
| 2026-04-30 06:34 | 13.19234 | 121.96535 | 33439 ft | 459 kts | 324° |
| 2026-04-30 06:34 | 13.21837 | 121.94686 | 32729 ft | 450 kts | 324° |
| 2026-04-30 06:35 | 13.24385 | 121.92873 | 31986 ft | 443 kts | 324° |
| 2026-04-30 06:35 | 13.26900 | 121.91082 | 31242 ft | 436 kts | 324° |
| 2026-04-30 06:35 | 13.29383 | 121.89309 | 30540 ft | 430 kts | 324° |
| 2026-04-30 06:35 | 13.31863 | 121.87539 | 29814 ft | 424 kts | 324° |
| 2026-04-30 06:36 | 13.34264 | 121.85829 | 29006 ft | 418 kts | 324° |
| 2026-04-30 06:36 | 13.36641 | 121.84134 | 28240 ft | 413 kts | 324° |
| 2026-04-30 06:36 | 13.38990 | 121.82458 | 27505 ft | 408 kts | 324° |
| 2026-04-30 06:36 | 13.41312 | 121.80799 | 26789 ft | 403 kts | 324° |
| 2026-04-30 06:37 | 13.43602 | 121.79163 | 26082 ft | 399 kts | 324° |
| 2026-04-30 06:37 | 13.45865 | 121.77547 | 25385 ft | 394 kts | 324° |
| 2026-04-30 06:37 | 13.48107 | 121.75946 | 24696 ft | 390 kts | 325° |
| 2026-04-30 06:37 | 13.50332 | 121.74355 | 24097 ft | 389 kts | 325° |
| 2026-04-30 06:38 | 13.52537 | 121.72778 | 23879 ft | 386 kts | 325° |
| 2026-04-30 06:38 | 13.54722 | 121.71217 | 23668 ft | 386 kts | 325° |
| 2026-04-30 06:38 | 13.56925 | 121.69643 | 23447 ft | 385 kts | 325° |
| 2026-04-30 06:38 | 13.59114 | 121.68078 | 23193 ft | 383 kts | 325° |
| 2026-04-30 06:39 | 13.61304 | 121.66512 | 22934 ft | 382 kts | 325° |
| 2026-04-30 06:39 | 13.63480 | 121.64957 | 22676 ft | 381 kts | 325° |
| 2026-04-30 06:39 | 13.65639 | 121.63411 | 22421 ft | 375 kts | 325° |
| 2026-04-30 06:39 | 13.67759 | 121.61890 | 22092 ft | 369 kts | 325° |
| 2026-04-30 06:40 | 13.69745 | 121.60242 | 21677 ft | 367 kts | 319° |
| 2026-04-30 06:40 | 13.71644 | 121.58496 | 21269 ft | 365 kts | 319° |
| 2026-04-30 06:40 | 13.73532 | 121.56767 | 20859 ft | 363 kts | 319° |
| 2026-04-30 06:40 | 13.75413 | 121.55049 | 20446 ft | 361 kts | 319° |
| 2026-04-30 06:41 | 13.77281 | 121.53342 | 20036 ft | 359 kts | 319° |
| 2026-04-30 06:41 | 13.79143 | 121.51638 | 19630 ft | 358 kts | 319° |
| 2026-04-30 06:41 | 13.80377 | 121.50510 | 19348 ft | 357 kts | 319° |
| 2026-04-30 06:41 | 13.82854 | 121.48246 | 18806 ft | 356 kts | 319° |
| 2026-04-30 06:42 | 13.84709 | 121.46551 | 18401 ft | 356 kts | 320° |
| 2026-04-30 06:42 | 13.86562 | 121.44854 | 18017 ft | 354 kts | 320° |
| 2026-04-30 06:42 | 13.88400 | 121.43172 | 17586 ft | 352 kts | 320° |
| 2026-04-30 06:42 | 13.90225 | 121.41500 | 17175 ft | 351 kts | 320° |
| 2026-04-30 06:43 | 13.91430 | 121.40396 | 16945 ft | 348 kts | 320° |
| 2026-04-30 06:43 | 13.93238 | 121.38739 | 16548 ft | 347 kts | 320° |
| 2026-04-30 06:43 | 13.95630 | 121.36542 | 16070 ft | 343 kts | 319° |
| 2026-04-30 06:43 | 13.97425 | 121.34891 | 15638 ft | 344 kts | 320° |
| 2026-04-30 06:44 | 13.99170 | 121.33289 | 15356 ft | 339 kts | 320° |
| 2026-04-30 06:44 | 14.00925 | 121.31683 | 14992 ft | 337 kts | 320° |
| 2026-04-30 06:44 | 14.02685 | 121.30073 | 14619 ft | 335 kts | 320° |
| 2026-04-30 06:44 | 14.04286 | 121.28333 | 14257 ft | 334 kts | 307° |
| 2026-04-30 06:45 | 14.05434 | 121.26252 | 13893 ft | 334 kts | 292° |
| 2026-04-30 06:45 | 14.06255 | 121.24030 | 13543 ft | 333 kts | 291° |
| 2026-04-30 06:45 | 14.07064 | 121.21852 | 13390 ft | 321 kts | 292° |
| 2026-04-30 06:45 | 14.07850 | 121.19757 | 13228 ft | 307 kts | 292° |
| 2026-04-30 06:46 | 14.08615 | 121.17723 | 12877 ft | 301 kts | 292° |
| 2026-04-30 06:46 | 14.09365 | 121.15721 | 12459 ft | 298 kts | 291° |
| 2026-04-30 06:46 | 14.10109 | 121.13732 | 12029 ft | 296 kts | 291° |
| 2026-04-30 06:46 | 14.10848 | 121.11756 | 11596 ft | 294 kts | 291° |
| 2026-04-30 06:47 | 14.11569 | 121.09822 | 11169 ft | 293 kts | 291° |
| 2026-04-30 06:47 | 14.12301 | 121.07862 | 10759 ft | 291 kts | 291° |
| 2026-04-30 06:47 | 14.13025 | 121.05925 | 10351 ft | 290 kts | 291° |
| 2026-04-30 06:47 | 14.13751 | 121.03986 | 9954 ft | 290 kts | 292° |
| 2026-04-30 06:48 | 14.14242 | 121.02680 | 9785 ft | 289 kts | 291° |
| 2026-04-30 06:48 | 14.15199 | 121.00131 | 9413 ft | 287 kts | 292° |
| 2026-04-30 06:48 | 14.15773 | 120.98624 | 9284 ft | 279 kts | 292° |
| 2026-04-30 06:48 | 14.16453 | 120.96821 | 9058 ft | 263 kts | 293° |
| 2026-04-30 06:49 | 14.17341 | 120.95201 | 8704 ft | 257 kts | 310° |
| 2026-04-30 06:49 | 14.18588 | 120.93892 | 8453 ft | 257 kts | 324° |
| 2026-04-30 06:49 | 14.20113 | 120.92906 | 8006 ft | 260 kts | 333° |
| 2026-04-30 06:49 | 14.21661 | 120.92001 | 7806 ft | 252 kts | 333° |
| 2026-04-30 06:50 | 14.23174 | 120.91110 | 7531 ft | 249 kts | 333° |
| 2026-04-30 06:50 | 14.24675 | 120.90225 | 7143 ft | 247 kts | 333° |
| 2026-04-30 06:50 | 14.26179 | 120.89338 | 6676 ft | 249 kts | 332° |
| 2026-04-30 06:50 | 14.27683 | 120.88432 | 6301 ft | 251 kts | 330° |
| 2026-04-30 06:51 | 14.28648 | 120.87778 | 6083 ft | 250 kts | 327° |
| 2026-04-30 06:51 | 14.30052 | 120.86771 | 5773 ft | 241 kts | 327° |
| 2026-04-30 06:51 | 14.31824 | 120.85473 | 5360 ft | 230 kts | 327° |
| 2026-04-30 06:51 | 14.33120 | 120.84513 | 5050 ft | 226 kts | 327° |
| 2026-04-30 06:52 | 14.33975 | 120.83878 | 4841 ft | 222 kts | 327° |
| 2026-04-30 06:52 | 14.35664 | 120.82761 | 4349 ft | 214 kts | 340° |
| 2026-04-30 06:52 | 14.37043 | 120.82417 | 3948 ft | 209 kts | 359° |
| 2026-04-30 06:52 | 14.37971 | 120.82448 | 3806 ft | 199 kts | 11° |
| 2026-04-30 06:53 | 14.39240 | 120.82824 | 3641 ft | 183 kts | 27° |
| 2026-04-30 06:53 | 14.40583 | 120.83784 | 3410 ft | 176 kts | 49° |
| 2026-04-30 06:53 | 14.41097 | 120.84423 | 3278 ft | 175 kts | 58° |
| 2026-04-30 06:53 | 14.41710 | 120.85500 | 3075 ft | 174 kts | 62° |
| 2026-04-30 06:54 | 14.42314 | 120.86585 | 2858 ft | 172 kts | 61° |
| 2026-04-30 06:54 | 14.42913 | 120.87660 | 2636 ft | 171 kts | 61° |
| 2026-04-30 06:54 | 14.43499 | 120.88710 | 2423 ft | 168 kts | 63° |
| 2026-04-30 06:54 | 14.44065 | 120.89727 | 2220 ft | 170 kts | 62° |
| 2026-04-30 06:55 | 14.44643 | 120.90764 | 2030 ft | 162 kts | 62° |
| 2026-04-30 06:55 | 14.45201 | 120.91766 | 1816 ft | 151 kts | 63° |
| 2026-04-30 06:55 | 14.45708 | 120.92676 | 1626 ft | 146 kts | 63° |
| 2026-04-30 06:55 | 14.46213 | 120.93586 | 1429 ft | 145 kts | 63° |
| 2026-04-30 06:56 | 14.46715 | 120.94488 | 1252 ft | 145 kts | 64° |
| 2026-04-30 06:56 | 14.47210 | 120.95380 | 1067 ft | 146 kts | 61° |
| 2026-04-30 06:56 | 14.47713 | 120.96283 | 882 ft | 145 kts | 62° |
| 2026-04-30 06:56 | 14.48211 | 120.97190 | 689 ft | 145 kts | 62° |
| 2026-04-30 06:57 | 14.48716 | 120.98098 | 513 ft | 147 kts | 60° |
| 2026-04-30 06:57 | 14.49234 | 120.99005 | 347 ft | 144 kts | 65° |
| 2026-04-30 06:57 | 14.49739 | 120.99925 | 154 ft | 148 kts | 66° |
| 2026-04-30 06:57 | 14.50226 | 121.00808 | 61 ft | 125 kts | 60° |
| 2026-04-30 06:58 | 14.50575 | 121.01431 | 66 ft | 75 kts | 60° |
| 2026-04-30 06:58 | 14.50763 | 121.01712 | 60 ft | 33 kts | 41° |
| 2026-04-30 06:58 | 14.50878 | 121.01785 | 60 ft | 13 kts | 356° |
| 2026-04-30 06:58 | 14.50902 | 121.01738 | 68 ft | 9 kts | 245° |
| 2026-04-30 06:59 | 14.50885 | 121.01678 | 60 ft | 9 kts | 292° |
| 2026-04-30 06:59 | 14.50933 | 121.01626 | 64 ft | 10 kts | 315° |
| 2026-04-30 06:59 | 14.50961 | 121.01596 | 60 ft | 4 kts | 315° |
| 2026-04-30 06:59 | 14.50985 | 121.01571 | 64 ft | 6 kts | 314° |
| 2026-04-30 07:00 | 14.51016 | 121.01538 | 64 ft | 7 kts | 316° |
| 2026-04-30 07:00 | 14.51054 | 121.01501 | 68 ft | 8 kts | 316° |
| 2026-04-30 07:00 | 14.51098 | 121.01454 | 64 ft | 10 kts | 313° |
| 2026-04-30 07:00 | 14.51124 | 121.01415 | 66 ft | 6 kts | 276° |
| 2026-04-30 07:01 | 14.51096 | 121.01386 | 63 ft | 6 kts | 216° |
| 2026-04-30 07:01 | 14.51070 | 121.01364 | 67 ft | 3 kts | 220° |
| 2026-04-30 07:01 | 14.51062 | 121.01357 | 67 ft | 0 kts | 220° |